Station: Macquarie Island  

  Atmospheric Gas Attenuation - ITU Rec 676-11   ----------------- dB/100km -----------------
Date Time Temp RH % AH g/m3 Dew Point Wind Direction Speed kph Gust kph Barometer mB Rainfall Since 9am 24GHz 47GHz 76GHz 122GHz 134GHz 241GHz
08/05 03:00 6.2 85 6.25 3.9 63 76 984.6 1.2 14.9 23.1 32.6 85.7 73.8 251.6
08/05 02:50 6.4 82 6.11 3.6 63 69 984.7 1 14.6 22.9 32.0 84.0 71.8 244.6
08/05 02:40 6.2 81 5.96 3.2 70 80 984.8 1 14.2 22.7 31.5 82.7 70.0 238.4
08/05 02:30 6.4 80 5.96 3.2 65 82 985.2 1 14.2 22.6 31.4 82.5 69.9 237.9
08/05 02:20 6.5 79 5.93 3.1 65 72 985.4 1 14.2 22.6 31.3 82.1 69.4 236.3
08/05 02:10 6.3 79 5.85 2.9 65 70 985.6 1 14.0 22.5 31.1 81.5 68.6 233.3
08/05 02:00 6.3 78 5.78 2.8 57 70 985.8 1 13.8 22.4 30.8 80.8 67.7 230.2
08/05 01:50 6.3 77 5.7 2.6 61 69 986 1 13.7 22.3 30.5 80.0 66.7 226.6
08/05 01:40 6.3 75 5.55 2.2 59 65 986.1 1 13.4 22.1 29.9 78.4 64.8 219.9
08/05 01:30 6.3 76 5.63 2.4 56 70 986.5 1 13.5 22.2 30.2 79.3 65.8 223.6
08/05 01:20 6.2 77 5.67 2.5 59 72 986.6 1 13.6 22.3 30.4 79.8 66.4 225.7
08/05 01:10 6.1 75 5.48 2 63 69 986.6 1 13.2 22.0 29.7 77.9 64.1 217.5
08/05 01:00 6 76 5.52 2.1 56 69 986.9 1 13.3 22.1 30.0 78.5 64.7 219.6
08/05 00:50 6 77 5.59 2.3 54 61 987 1 13.4 22.2 30.2 79.2 65.6 222.8
08/05 00:40 5.9 76 5.48 2 54 63 987.1 1 13.2 22.1 29.8 78.2 64.3 218.1
08/05 00:30 6.1 75 5.48 2 54 69 987.4 1 13.2 22.0 29.8 78.0 64.1 217.6
08/05 00:20 6 75 5.45 1.9 43 54 987.5 1 13.1 22.0 29.7 77.8 63.8 216.6
08/05 00:10 5.8 74 5.3 1.5 56 65 987.4 1 12.8 21.8 29.2 76.5 62.1 210.4
08/05 00:00 5.8 73 5.23 1.3 52 72 987.4 1 12.7 21.7 28.9 75.7 61.2 207.3
07/05 23:50 5.8 74 5.3 1.5 54 65 987.7 1 12.8 21.9 29.2 76.5 62.1 210.5
07/05 23:40 5.7 72 5.13 1.1 54 65 987.7 1 12.5 21.6 28.6 74.8 60.0 203.2
07/05 23:30 5.7 72 5.13 1.1 50 69 987.9 1 12.5 21.6 28.6 74.9 60.0 203.3
07/05 23:20 5.6 72 5.09 1 50 59 988 1 12.4 21.6 28.5 74.6 59.6 201.8
07/05 23:10 5.7 74 5.27 1.4 48 56 988.1 1 12.8 21.8 29.1 76.3 61.8 209.5
07/05 23:00 5.4 72 5.03 0.8 50 63 988.1 1 12.3 21.5 28.3 74.1 59.0 199.6
07/05 22:50 5.5 72 5.06 0.9 46 65 988.3 1 12.3 21.6 28.4 74.4 59.3 200.7
07/05 22:40 5.5 70 4.92 0.5 54 61 988.3 1 12.0 21.4 27.9 73.0 57.6 194.6
07/05 22:30 5.4 71 4.96 0.6 48 65 988.4 1 12.1 21.5 28.1 73.5 58.1 196.6
07/05 22:20 5.4 68 4.75 0 52 61 988.5 1 11.7 21.1 27.3 71.3 55.5 187.4
07/05 22:10 5.3 68 4.72 -0.1 57 61 988.7 1 11.6 21.1 27.2 71.2 55.2 186.4
07/05 22:00 5.3 68 4.72 -0.1 50 61 988.7 1 11.6 21.1 27.2 71.2 55.2 186.4
07/05 21:50 5.2 68 4.69 -0.2 52 57 988.9 1 11.5 21.1 27.2 71.0 54.9 185.3
07/05 21:40 5.2 68 4.69 -0.2 48 54 989 1 11.5 21.1 27.2 71.0 54.9 185.3
07/05 21:30 5.1 69 4.72 -0.1 48 57 989 1 11.6 21.2 27.3 71.4 55.4 186.9
07/05 21:20 5 70 4.76 0 50 54 989.2 1 11.7 21.3 27.5 71.9 56.0 188.9
07/05 21:10 5 69 4.69 -0.2 43 50 989.3 1 11.5 21.2 27.2 71.2 55.1 185.9
07/05 21:00 4.9 68 4.59 -0.5 48 52 989.3 1 11.3 21.0 26.9 70.3 53.9 181.7
07/05 20:50 4.9 67 4.53 -0.7 46 54 989.3 1 11.2 20.9 26.7 69.7 53.2 179.1
07/05 20:40 4.9 64 4.32 -1.3 48 54 989.4 1 10.7 20.6 25.9 67.6 50.6 170.0
07/05 20:30 5 67 4.56 -0.6 52 57 989.4 1 11.3 21.0 26.7 69.9 53.5 180.2
07/05 20:20 4.9 66 4.46 -0.9 50 56 989.4 1 11.0 20.8 26.4 69.0 52.3 176.1
07/05 20:10 4.7 68 4.53 -0.7 46 54 989.5 1 11.2 21.0 26.7 69.8 53.3 179.6
07/05 20:00 4.7 67 4.47 -0.9 46 54 989.5 1 11.1 20.9 26.5 69.2 52.6 177.0
07/05 19:50 4.6 68 4.5 -0.8 44 48 989.5 1 11.1 21.0 26.7 69.6 53.0 178.5
07/05 19:40 4.6 67 4.44 -1 46 52 989.6 1 11.0 20.9 26.4 69.0 52.3 175.9
07/05 19:30 4.7 69 4.6 -0.5 39 43 989.7 1 11.4 21.1 27.0 70.6 54.2 182.7
07/05 19:20 4.4 64 4.18 -1.8 44 50 989.7 1 10.5 20.5 25.5 66.6 49.2 165.1
07/05 19:10 4.2 65 4.19 -1.8 37 43 989.9 1 10.5 20.6 25.6 66.9 49.5 165.9
07/05 19:00 4.2 65 4.19 -1.8 39 46 989.9 1 10.5 20.6 25.6 66.9 49.5 165.9
07/05 18:50 4.4 68 4.44 -1 43 50 989.8 1 11.0 20.9 26.5 69.2 52.4 176.4
07/05 18:40 4.1 66 4.23 -1.7 43 48 989.7 1 10.6 20.7 25.8 67.4 50.0 167.9
07/05 18:30 4.1 68 4.36 -1.3 43 48 989.7 1 10.9 20.9 26.3 68.7 51.6 173.5
07/05 18:20 4.2 70 4.51 -0.8 43 50 989.6 1 11.2 21.1 26.8 70.1 53.4 179.9
07/05 18:10 4 69 4.39 -1.2 46 52 989.7 1 10.9 21.0 26.5 69.1 52.1 175.1
07/05 18:00 4 70 4.45 -1 37 43 989.7 1 11.1 21.0 26.7 69.7 52.8 177.7
07/05 17:50 3.7 79 4.93 0.4 43 48 989.5 1 12.1 21.9 28.6 74.8 59.1 199.7
07/05 17:40 3.7 81 5.05 0.7 35 41 989.5 1 12.4 22.0 29.1 76.1 60.6 205.1
07/05 17:30 3.2 83 5.01 0.6 35 39 989.6 1 12.3 22.1 29.1 76.2 60.5 204.6
07/05 17:20 2.9 83 4.91 0.3 44 50 989.7 1 12.1 22.0 28.8 75.4 59.5 200.9
07/05 17:10 3.3 86 5.22 1.2 37 43 989.7 1 12.7 22.4 29.9 78.3 63.2 214.0
07/05 17:00 2.9 88 5.2 1.1 37 43 989.7 1 12.7 22.5 30.0 78.5 63.2 214.2
07/05 16:50 2.6 88 5.1 0.8 35 43 989.8 1 12.5 22.4 29.7 77.7 62.2 210.4
07/05 16:40 2.7 87 5.07 0.8 39 44 989.9 1 12.4 22.3 29.5 77.3 61.7 208.7
07/05 16:30 2.6 87 5.04 0.7 41 44 989.6 1 12.4 22.3 29.4 77.1 61.4 207.6
07/05 16:20 2.8 83 4.87 0.2 54 61 989.7 1 12.0 22.0 28.7 75.1 59.0 199.3
07/05 16:10 4.2 76 4.9 0.4 43 50 989.3 0.8 12.0 21.7 28.3 74.0 58.3 197.1
07/05 16:00 3.9 77 4.87 0.2 43 48 989.3 0.8 12.0 21.7 28.3 74.0 58.2 196.5
07/05 15:50 3.8 79 4.96 0.5 48 52 989.3 0.8 12.2 21.9 28.7 75.0 59.4 200.8
07/05 15:40 3.8 78 4.9 0.3 39 44 989.5 0.8 12.0 21.8 28.5 74.4 58.6 198.1
07/05 15:30 4.3 72 4.67 -0.3 46 52 989.3 0.8 11.5 21.3 27.4 71.6 55.3 186.6
07/05 15:20 4.3 75 4.87 0.3 52 57 989.2 0.8 12.0 21.6 28.2 73.6 57.9 195.5
07/05 15:10 4.4 78 5.1 0.9 46 52 989.2 0.8 12.4 21.9 29.0 75.9 60.7 205.5
07/05 15:00 4.4 82 5.36 1.6 46 54 989.2 0.8 13.0 22.3 30.0 78.6 64.1 217.3
07/05 14:50 4.3 85 5.52 2 46 54 989.1 0.8 13.4 22.6 30.7 80.4 66.2 224.8
07/05 14:40 4.3 88 5.71 2.5 43 48 989.2 0.8 13.8 22.9 31.4 82.4 68.7 233.6
07/05 14:30 3.7 89 5.55 2.1 37 43 989.4 0.8 13.4 22.8 31.0 81.4 67.2 228.0
07/05 14:20 3.6 89 5.51 2 39 43 989.5 0.8 13.4 22.8 30.9 81.1 66.7 226.5
07/05 14:10 4.2 90 5.8 2.7 43 46 989.3 0.8 14.0 23.1 31.8 83.5 70.0 238.1
07/05 14:00 4 90 5.73 2.5 37 41 989.4 0.8 13.8 23.0 31.7 83.0 69.3 235.5
07/05 13:50 4.1 90 5.77 2.6 37 39 989.6 0.8 13.9 23.1 31.8 83.3 69.7 237.1
07/05 13:40 4.2 88 5.67 2.4 44 48 989.6 0.4 13.7 22.9 31.3 82.1 68.3 232.1
07/05 13:30 4 89 5.66 2.4 46 52 989.7 0.4 13.7 22.9 31.4 82.3 68.4 232.3
07/05 13:20 4 90 5.73 2.5 48 54 989.8 0.4 13.8 23.1 31.7 83.0 69.3 235.5
07/05 13:10 3.9 89 5.63 2.3 52 59 989.8 0.4 13.6 22.9 31.3 82.1 68.1 231.2
07/05 13:00 5.4 82 5.73 2.6 43 57 989.7 0.2 13.8 22.7 31.1 81.5 68.1 231.4
07/05 12:50 5.4 79 5.52 2.1 44 50 989.8 0 13.3 22.4 30.3 79.3 65.3 221.8
07/05 12:40 5.6 79 5.59 2.3 39 46 990 0 13.5 22.4 30.5 79.9 66.1 224.5
07/05 12:30 5.8 76 5.45 1.9 46 52 990 0 13.2 22.2 29.9 78.2 64.1 217.6
07/05 12:20 5.9 76 5.48 2 39 48 990.2 0 13.2 22.2 30.0 78.5 64.4 218.7
07/05 12:10 6 74 5.37 1.7 52 57 990.3 0 13.0 22.0 29.5 77.2 63.0 213.6
07/05 12:00 6.1 69 5.04 0.9 39 46 990.5 0 12.3 21.5 28.2 73.8 58.7 198.7
07/05 11:50 6.4 70 5.22 1.3 43 48 990.7 0 12.6 21.7 28.8 75.4 60.8 205.9
07/05 11:40 6.3 68 5.04 0.8 41 52 990.9 0 12.3 21.4 28.2 73.6 58.6 198.3
07/05 11:30 6.3 71 5.26 1.4 37 48 991.1 0 12.7 21.8 29.0 75.9 61.4 208.0
07/05 11:20 6.2 73 5.37 1.7 37 46 991.2 0 13.0 22.0 29.5 77.1 62.9 213.2
07/05 11:10 6.4 74 5.52 2.1 37 43 991.4 0 13.3 22.2 30.0 78.5 64.6 219.4
07/05 11:00 6.2 72 5.3 1.5 41 50 991.6 0 12.8 21.9 29.2 76.4 62.0 210.2
07/05 10:50 6.1 71 5.19 1.2 46 50 991.8 0 12.6 21.8 28.8 75.4 60.7 205.6
07/05 10:40 6.1 75 5.48 2 44 48 992 0 13.2 22.2 30.0 78.4 64.4 218.5
07/05 10:30 6.1 74 5.41 1.8 39 44 992.1 0 13.1 22.1 29.7 77.7 63.5 215.4

Last Refresh: 08-May-2026 02:36:29

Bureau of Meteorology